Time;durP1;ratioP1;P1;durP2;ratioP2;P2;SDS_P1;SDS_P2;PMS_P1;PMS_P2;Temp;Humidity;BMP_temperature;BMP_pressure;BME280_temperature;BME280_humidity;BME280_pressure;Samples;Min_cycle;Max_cycle;Signal;HPM_P1;HPM_P2
2022/09/04 00:01:48;;;;;;;7.43;4.22;;;16.80;99.90;;;;;;4815668;29;20059;-86
2022/09/04 00:05:39;;;;;;;7.25;3.97;;;16.50;99.90;;;;;;4636829;30;20078;-86
2022/09/04 00:09:25;;;;;;;8.83;4.27;;;16.00;99.90;;;;;;4587715;31;20216;-86
2022/09/04 00:12:04;;;;;;;6.50;4.30;;;16.60;99.90;;;;;;4589798;31;20308;-85
2022/09/04 00:15:33;;;;;;;5.00;4.00;;;16.50;99.90;;;;;;4576078;31;20065;-86
2022/09/04 00:18:54;;;;;;;6.70;4.13;;;16.20;99.90;;;;;;4544398;31;20047;-86
2022/09/04 00:22:10;;;;;;;8.93;4.30;;;16.40;99.90;;;;;;4591556;31;20065;-86
2022/09/04 00:24:58;;;;;;;9.18;4.55;;;16.30;99.90;;;;;;4597738;31;20048;-86
2022/09/04 00:27:44;;;;;;;7.72;4.63;;;16.30;99.90;;;;;;4623606;31;20060;-87
2022/09/04 00:31:07;;;;;;;6.38;3.92;;;16.40;99.90;;;;;;4619679;31;20055;-85
2022/09/04 00:34:20;;;;;;;9.13;4.47;;;16.60;99.90;;;;;;4587751;31;20067;-86
2022/09/04 00:37:24;;;;;;;6.93;4.05;;;17.10;99.90;;;;;;4601516;31;20501;-84
2022/09/04 00:40:25;;;;;;;8.18;4.35;;;16.50;99.90;;;;;;4558894;31;20054;-86
2022/09/04 00:43:20;;;;;;;6.78;4.13;;;16.10;99.90;;;;;;4579301;31;20192;-86
2022/09/04 00:46:42;;;;;;;6.95;4.50;;;16.20;99.90;;;;;;4562139;31;20092;-86
2022/09/04 00:49:43;;;;;;;9.27;4.97;;;16.30;99.90;;;;;;4582203;31;20061;-86
2022/09/04 00:57:26;;;;;;;6.53;4.57;;;16.20;99.90;;;;;;4652216;30;20055;-85
2022/09/04 01:00:19;;;;;;;7.07;4.88;;;16.10;99.90;;;;;;4648493;30;20039;-86
2022/09/04 01:03:27;;;;;;;9.00;4.57;;;16.20;99.90;;;;;;4665958;30;20039;-86
2022/09/04 01:06:36;;;;;;;7.95;4.72;;;16.20;99.90;;;;;;4800141;29;20050;-84
2022/09/04 01:14:05;;;;;;;6.55;4.55;;;16.30;99.90;;;;;;4835952;29;20075;-85
2022/09/04 01:17:24;;;;;;;6.82;4.32;;;16.20;99.90;;;;;;4817372;29;20059;-85
2022/09/04 01:20:23;;;;;;;8.15;4.28;;;16.10;99.90;;;;;;4802972;29;20061;-86
2022/09/04 01:23:50;;;;;;;7.70;4.85;;;16.20;99.90;;;;;;4782332;29;20070;-87
2022/09/04 01:26:46;;;;;;;5.97;4.47;;;16.20;99.90;;;;;;4719183;30;20134;-85
2022/09/04 01:29:43;;;;;;;5.68;4.32;;;16.20;99.90;;;;;;4740439;30;20069;-87
2022/09/04 01:32:35;;;;;;;6.93;4.47;;;16.30;99.90;;;;;;4748362;30;20045;-86
2022/09/04 01:35:34;;;;;;;7.82;5.13;;;16.20;99.90;;;;;;4750809;30;20057;-86
2022/09/04 01:38:53;;;;;;;7.85;4.93;;;16.20;99.90;;;;;;4716309;30;20060;-86
2022/09/04 01:42:13;;;;;;;8.55;4.93;;;16.30;99.90;;;;;;4667043;30;20051;-86
2022/09/04 01:48:40;;;;;;;7.47;4.95;;;16.30;99.90;;;;;;4789887;30;20115;-87
2022/09/04 01:51:55;;;;;;;7.97;4.93;;;16.30;99.90;;;;;;4745226;30;20056;-86
2022/09/04 01:54:57;;;;;;;7.35;4.65;;;16.30;99.90;;;;;;4735053;30;20056;-86
2022/09/04 01:57:58;;;;;;;7.15;5.13;;;16.30;99.90;;;;;;4714654;30;20057;-86
2022/09/04 02:01:00;;;;;;;7.35;4.82;;;16.30;99.90;;;;;;4733384;30;20092;-85
2022/09/04 02:04:31;;;;;;;6.88;4.50;;;16.30;99.90;;;;;;4734291;30;20116;-86
2022/09/04 02:07:32;;;;;;;7.20;4.68;;;16.30;99.90;;;;;;4733858;30;20053;-86
2022/09/04 02:10:40;;;;;;;8.32;5.45;;;16.30;99.90;;;;;;4727726;30;20049;-85
2022/09/04 02:13:32;;;;;;;8.07;4.90;;;16.30;99.90;;;;;;4706547;30;20079;-86
2022/09/04 02:16:29;;;;;;;9.77;4.97;;;16.30;99.90;;;;;;4701975;30;20050;-87
2022/09/04 02:19:42;;;;;;;9.13;4.93;;;16.50;99.90;;;;;;4701548;30;20056;-85
2022/09/04 02:22:44;;;;;;;7.63;4.82;;;16.30;99.90;;;;;;4694975;30;20045;-86
2022/09/04 02:25:49;;;;;;;9.15;4.80;;;16.10;99.90;;;;;;4724984;30;20114;-87
2022/09/04 02:29:22;;;;;;;6.93;4.72;;;16.30;99.90;;;;;;4685806;30;20117;-86
2022/09/04 02:32:25;;;;;;;7.15;4.90;;;16.20;99.90;;;;;;4727418;30;20049;-85
2022/09/04 02:35:33;;;;;;;6.53;4.70;;;15.70;99.90;;;;;;4768213;30;20052;-85
2022/09/04 02:39:00;;;;;;;9.15;5.35;;;16.20;99.90;;;;;;4774921;30;20064;-87
2022/09/04 02:41:53;;;;;;;7.68;4.72;;;16.20;99.90;;;;;;4801452;29;20055;-86
2022/09/04 02:45:30;;;;;;;8.20;5.55;;;16.00;99.90;;;;;;4762883;30;20064;-85
2022/09/04 02:48:30;;;;;;;7.95;5.20;;;16.20;99.90;;;;;;4756526;30;20182;-85
2022/09/04 02:51:45;;;;;;;8.80;5.47;;;16.20;99.90;;;;;;4733850;30;20049;-87
2022/09/04 02:54:58;;;;;;;12.10;5.68;;;16.10;99.90;;;;;;4740309;30;20060;-86
2022/09/04 02:58:28;;;;;;;8.73;5.82;;;16.20;99.90;;;;;;4743141;30;20060;-84
2022/09/04 03:01:30;;;;;;;8.88;5.82;;;16.20;99.90;;;;;;4741110;30;20122;-86
2022/09/04 03:04:48;;;;;;;9.80;5.88;;;16.20;99.90;;;;;;4710739;30;20061;-85
2022/09/04 03:07:56;;;;;;;10.65;6.00;;;16.20;99.90;;;;;;4684094;30;20088;-87
2022/09/04 03:10:41;;;;;;;6.88;5.65;;;16.20;99.90;;;;;;4715184;30;20060;-86
2022/09/04 03:13:42;;;;;;;10.68;5.82;;;16.10;99.90;;;;;;4667792;30;20059;-86
2022/09/04 03:16:48;;;;;;;10.68;5.80;;;16.10;99.90;;;;;;4683842;30;20038;-86
2022/09/04 03:19:51;;;;;;;10.10;5.88;;;16.10;99.90;;;;;;4640415;31;20119;-86
2022/09/04 03:22:36;;;;;;;10.80;6.60;;;16.10;99.90;;;;;;4617018;31;20048;-84
2022/09/04 03:25:34;;;;;;;7.88;5.72;;;16.10;99.90;;;;;;4674881;30;20096;-86
2022/09/04 03:28:19;;;;;;;9.43;6.53;;;16.00;99.90;;;;;;4692362;30;20061;-85
2022/09/04 03:30:58;;;;;;;9.40;6.35;;;16.00;99.90;;;;;;4668951;30;20046;-85
2022/09/04 03:33:44;;;;;;;9.80;6.13;;;15.90;99.90;;;;;;4742313;30;20053;-87
2022/09/04 03:37:17;;;;;;;8.82;5.93;;;16.00;99.90;;;;;;4742993;30;20056;-85
2022/09/04 03:40:21;;;;;;;8.95;6.07;;;16.00;99.90;;;;;;4701246;30;20071;-86
2022/09/04 03:43:38;;;;;;;11.32;6.10;;;16.10;99.90;;;;;;4728620;30;20057;-85
2022/09/04 03:46:45;;;;;;;10.25;6.20;;;15.90;99.90;;;;;;4727963;30;20061;-85
2022/09/04 03:50:00;;;;;;;8.77;6.30;;;15.90;99.90;;;;;;4720636;30;20057;-84
2022/09/04 03:53:40;;;;;;;8.85;5.88;;;15.90;99.90;;;;;;4715140;30;20049;-87
2022/09/04 03:56:42;;;;;;;8.43;5.70;;;15.60;99.90;;;;;;4701344;30;20054;-85
2022/09/04 04:00:10;;;;;;;8.95;5.78;;;15.90;99.90;;;;;;4699760;30;20397;-86
2022/09/04 04:03:32;;;;;;;6.53;4.68;;;15.90;99.90;;;;;;4704745;30;20053;-86
2022/09/04 04:06:44;;;;;;;6.03;4.38;;;15.80;99.90;;;;;;4675277;30;20066;-86
2022/09/04 04:09:38;;;;;;;5.80;4.22;;;15.90;99.90;;;;;;4666742;30;20059;-85
2022/09/04 04:13:01;;;;;;;8.95;4.20;;;15.80;99.90;;;;;;4654002;30;20086;-86
2022/09/04 04:15:58;;;;;;;7.35;4.50;;;15.70;99.90;;;;;;4654192;30;20058;-85
2022/09/04 04:19:11;;;;;;;5.63;3.78;;;15.80;99.90;;;;;;4811933;24;20046;-86
2022/09/04 04:21:58;;;;;;;8.07;4.50;;;15.60;99.90;;;;;;4853550;29;20085;-85
2022/09/04 04:24:47;;;;;;;6.90;3.80;;;15.60;99.90;;;;;;4869109;24;20122;-83
2022/09/04 04:27:43;;;;;;;5.55;3.13;;;15.30;99.90;;;;;;4855053;29;20071;-85
2022/09/04 04:30:14;;;;;;;4.80;3.30;;;15.60;99.90;;;;;;4875911;24;20390;-85
2022/09/04 04:33:02;;;;;;;5.35;3.50;;;15.60;99.90;;;;;;4843346;29;20056;-86
2022/09/04 04:36:38;;;;;;;5.40;3.15;;;15.70;99.90;;;;;;4948677;24;20050;-84
2022/09/04 04:39:34;;;;;;;4.20;2.85;;;15.70;99.90;;;;;;4743550;30;20104;-86
2022/09/04 04:43:05;;;;;;;4.13;2.75;;;15.60;99.90;;;;;;4815507;29;20058;-85
2022/09/04 04:46:14;;;;;;;5.93;2.50;;;15.60;99.90;;;;;;4791389;29;20055;-86
2022/09/04 04:49:41;;;;;;;4.85;2.15;;;15.70;99.90;;;;;;4719219;30;20054;-86
2022/09/04 04:53:45;;;;;;;4.82;2.30;;;15.80;99.90;;;;;;4685930;30;20061;-86
2022/09/04 05:01:10;;;;;;;2.60;2.03;;;15.80;99.90;;;;;;4819133;24;20148;-84
2022/09/04 05:05:03;;;;;;;3.25;1.88;;;15.70;99.90;;;;;;4824968;29;20054;-85
2022/09/04 05:07:51;;;;;;;3.70;2.00;;;15.80;99.90;;;;;;4786975;29;20055;-84
2022/09/04 05:10:24;;;;;;;3.75;1.77;;;15.70;99.90;;;;;;5010299;24;20145;-84
2022/09/04 05:12:59;;;;;;;3.50;2.33;;;15.70;99.90;;;;;;4866442;29;20066;-83
2022/09/04 05:16:05;;;;;;;3.85;1.88;;;15.80;99.90;;;;;;4838692;29;20121;-84
2022/09/04 05:18:44;;;;;;;3.75;1.75;;;15.80;99.90;;;;;;4796483;29;20195;-84
2022/09/04 05:21:24;;;;;;;2.67;1.70;;;15.80;99.90;;;;;;4835926;29;20073;-85
2022/09/04 05:24:12;;;;;;;3.83;1.52;;;15.80;99.90;;;;;;4822179;29;20058;-84
2022/09/04 05:27:23;;;;;;;3.35;1.55;;;15.90;99.90;;;;;;4814011;29;20049;-83
2022/09/04 05:30:39;;;;;;;2.30;1.40;;;15.90;99.90;;;;;;4772929;30;20120;-85
2022/09/04 05:33:50;;;;;;;3.03;1.88;;;15.90;99.90;;;;;;4811378;29;20047;-84
2022/09/04 05:39:49;;;;;;;3.40;1.67;;;16.00;99.90;;;;;;4839985;29;20077;-85
2022/09/04 05:43:10;;;;;;;4.75;1.70;;;16.00;99.90;;;;;;4779858;29;20093;-85
2022/09/04 05:46:04;;;;;;;2.80;1.67;;;16.00;99.90;;;;;;5030477;24;20059;-85
2022/09/04 05:52:01;;;;;;;2.28;1.40;;;16.00;99.90;;;;;;5069654;23;20057;-85
2022/09/04 05:55:05;;;;;;;2.38;1.70;;;16.00;99.90;;;;;;4901761;24;20055;31
2022/09/04 05:57:39;;;;;;;3.67;1.90;;;16.00;99.90;;;;;;4975575;24;20054;-84
2022/09/04 06:00:18;;;;;;;2.30;1.58;;;16.50;99.90;;;;;;4835916;29;20070;-85
2022/09/04 06:06:53;;;;;;;3.03;1.52;;;16.20;99.90;;;;;;4940088;24;20076;-85
2022/09/04 06:10:05;;;;;;;4.13;1.70;;;16.20;99.90;;;;;;4870157;29;20061;-86
2022/09/04 06:12:52;;;;;;;3.55;1.63;;;16.30;99.90;;;;;;4822424;29;20119;-86
2022/09/04 06:15:53;;;;;;;3.28;1.83;;;16.30;99.90;;;;;;4805811;29;20090;-84
2022/09/04 06:18:50;;;;;;;3.08;1.70;;;16.30;99.90;;;;;;4807080;29;20057;-85
2022/09/04 06:21:39;;;;;;;2.25;1.30;;;16.30;99.90;;;;;;4789359;29;20044;-84
2022/09/04 06:24:43;;;;;;;2.53;1.88;;;16.40;99.90;;;;;;4807887;29;20076;-86
2022/09/04 06:27:42;;;;;;;2.05;1.40;;;16.40;99.90;;;;;;4748342;30;20063;-85
2022/09/04 06:30:16;;;;;;;4.32;2.42;;;16.30;99.90;;;;;;4725198;30;20120;-85
2022/09/04 06:33:36;;;;;;;3.45;1.40;;;16.30;99.90;;;;;;4730207;30;20779;-84
2022/09/04 06:36:34;;;;;;;2.35;1.65;;;16.40;99.90;;;;;;4724244;30;20059;-85
2022/09/04 06:39:06;;;;;;;2.65;1.45;;;16.40;99.90;;;;;;4705048;30;20045;-86
2022/09/04 06:42:04;;;;;;;2.78;1.77;;;16.50;99.90;;;;;;4735959;30;20175;-85
2022/09/04 06:44:57;;;;;;;2.03;1.27;;;16.50;99.90;;;;;;4727816;30;20087;-85
2022/09/04 06:48:27;;;;;;;2.25;1.45;;;16.60;99.90;;;;;;4710190;30;20133;-86
2022/09/04 06:51:15;;;;;;;4.93;1.85;;;16.60;99.90;;;;;;4688010;30;20085;-85
2022/09/04 06:54:19;;;;;;;5.60;1.63;;;16.60;99.90;;;;;;4693674;30;20101;-85
2022/09/04 06:57:09;;;;;;;2.28;1.60;;;16.60;99.90;;;;;;4701378;30;20079;-86
2022/09/04 06:59:43;;;;;;;4.60;1.92;;;16.70;99.90;;;;;;4772224;30;20127;-86
2022/09/04 07:02:55;;;;;;;3.92;1.88;;;16.80;99.90;;;;;;4791137;30;20052;-85
2022/09/04 07:05:30;;;;;;;7.13;1.92;;;16.80;99.90;;;;;;4755493;30;20055;-84
2022/09/04 07:08:27;;;;;;;3.95;2.05;;;16.90;99.90;;;;;;4785753;30;20124;-84
2022/09/04 07:11:31;;;;;;;4.72;2.00;;;16.90;99.90;;;;;;5083160;24;20021;-84
2022/09/04 07:14:34;;;;;;;3.90;2.45;;;16.90;99.90;;;;;;4808437;29;20070;-85
2022/09/04 07:17:43;;;;;;;4.53;1.98;;;16.90;99.90;;;;;;4777932;29;20042;-84
2022/09/04 07:20:51;;;;;;;2.50;1.80;;;16.90;99.90;;;;;;4770223;29;20035;-84
2022/09/04 07:24:07;;;;;;;2.83;2.10;;;16.80;99.90;;;;;;4741595;30;20091;-86
2022/09/04 07:27:09;;;;;;;2.50;1.40;;;17.00;99.90;;;;;;4786321;30;20075;-85
2022/09/04 07:30:37;;;;;;;3.97;2.00;;;17.00;99.90;;;;;;4874502;24;20061;-82
2022/09/04 07:33:52;;;;;;;3.17;1.98;;;17.00;99.90;;;;;;4756027;30;20048;-84
2022/09/04 07:37:38;;;;;;;3.38;1.73;;;17.00;99.90;;;;;;4740663;30;20049;-82
2022/09/04 07:40:52;;;;;;;4.10;2.38;;;17.10;99.90;;;;;;4721760;30;20128;-83
2022/09/04 07:44:23;;;;;;;2.95;1.90;;;17.20;99.90;;;;;;4817106;29;20085;-84
2022/09/04 07:47:56;;;;;;;3.60;1.75;;;17.30;99.90;;;;;;4801582;29;20188;-82
2022/09/04 07:51:08;;;;;;;2.92;1.52;;;17.30;99.90;;;;;;4756359;30;20167;-82
2022/09/04 07:54:38;;;;;;;3.15;2.00;;;17.30;99.90;;;;;;4762288;30;20059;-85
2022/09/04 07:58:11;;;;;;;2.30;1.70;;;17.40;99.90;;;;;;4689140;30;20054;-85
2022/09/04 08:02:09;;;;;;;4.03;1.83;;;17.50;99.90;;;;;;4634960;30;20058;-86
2022/09/04 08:05:52;;;;;;;3.33;1.90;;;17.70;99.90;;;;;;4642252;30;20639;-86
2022/09/04 08:09:31;;;;;;;3.00;2.05;;;17.70;99.90;;;;;;4629529;31;20055;-88
2022/09/04 08:13:11;;;;;;;4.00;2.53;;;18.00;99.90;;;;;;4610563;31;20639;-88
2022/09/04 08:16:44;;;;;;;3.35;2.17;;;18.00;99.90;;;;;;4586567;31;20454;-89
2022/09/04 08:23:38;;;;;;;3.05;2.47;;;18.30;99.90;;;;;;4914602;24;20061;-88
2022/09/04 08:26:54;;;;;;;3.85;2.50;;;18.60;99.90;;;;;;4775673;29;20060;-87
2022/09/04 08:29:47;;;;;;;5.05;2.67;;;18.80;99.90;;;;;;4818383;29;20120;-89
2022/09/04 08:40:17;;;;;;;4.32;2.95;;;19.00;99.10;;;;;;4867728;24;20056;-89
2022/09/04 08:46:12;;;;;;;3.95;2.67;;;19.30;99.20;;;;;;4844671;29;20126;-88
2022/09/04 08:49:18;;;;;;;4.90;2.75;;;19.30;98.20;;;;;;4831534;29;20125;-90
2022/09/04 08:56:17;;;;;;;5.78;3.33;;;19.50;97.90;;;;;;4859918;29;20501;-92
2022/09/04 08:59:07;;;;;;;5.55;3.10;;;20.00;97.30;;;;;;4828119;29;20046;-89
2022/09/04 09:02:02;;;;;;;5.22;2.90;;;20.30;95.60;;;;;;4833303;29;20054;-91
2022/09/04 09:04:58;;;;;;;5.28;3.10;;;20.40;95.20;;;;;;4829883;29;20052;-89
2022/09/04 09:07:26;;;;;;;6.63;3.33;;;20.30;95.00;;;;;;4832385;29;20053;-88
2022/09/04 09:10:18;;;;;;;4.50;3.05;;;20.20;95.10;;;;;;4844875;29;20048;-94
2022/09/04 09:13:19;;;;;;;3.20;2.40;;;20.20;95.10;;;;;;4825860;29;20063;-87
2022/09/04 09:16:05;;;;;;;5.32;3.35;;;20.20;95.70;;;;;;4820944;29;20046;-88
2022/09/04 09:18:40;;;;;;;4.05;2.95;;;20.40;94.40;;;;;;4829289;29;20165;-90
2022/09/04 09:21:11;;;;;;;4.65;3.45;;;20.50;94.70;;;;;;4831617;29;20093;-89
2022/09/04 09:23:44;;;;;;;6.53;3.13;;;20.40;94.60;;;;;;4828998;29;20058;-89
2022/09/04 09:26:29;;;;;;;4.18;3.10;;;20.40;95.00;;;;;;4827396;29;20050;-89
2022/09/04 09:29:15;;;;;;;8.05;3.58;;;20.40;94.20;;;;;;4831222;29;20057;-88
2022/09/04 09:32:30;;;;;;;5.95;3.25;;;20.40;93.90;;;;;;4829906;29;20045;-92
2022/09/04 09:35:07;;;;;;;4.28;3.05;;;20.50;94.70;;;;;;4822251;29;20267;-89
2022/09/04 09:37:50;;;;;;;25.88;3.45;;;20.40;93.40;;;;;;4828429;29;20110;-89
2022/09/04 09:40:36;;;;;;;;;;;20.40;93.50;;;;;;4840290;29;20049;-89
2022/09/04 09:43:34;;;;;;;5.93;2.83;;;20.50;94.10;;;;;;4840167;29;19947;-88
2022/09/04 09:46:27;;;;;;;5.25;2.90;;;20.70;92.90;;;;;;4830019;29;20063;-89
2022/09/04 09:49:03;;;;;;;3.97;2.53;;;20.80;91.80;;;;;;4834196;29;20050;-94
2022/09/04 09:52:06;;;;;;;3.85;2.75;;;20.90;92.30;;;;;;4831450;29;20041;-88
2022/09/04 09:55:02;;;;;;;3.97;2.85;;;21.00;91.60;;;;;;4845262;29;20045;-89
2022/09/04 09:58:01;;;;;;;6.88;2.85;;;21.00;91.00;;;;;;4827454;29;20132;-88
2022/09/04 10:01:08;;;;;;;5.47;3.00;;;21.00;91.20;;;;;;4820590;29;20054;-88
2022/09/04 10:04:20;;;;;;;4.88;3.15;;;21.00;91.10;;;;;;4826487;29;21483;-89
2022/09/04 10:07:13;;;;;;;3.70;2.60;;;21.00;90.80;;;;;;4839964;29;20067;-91
2022/09/04 10:09:59;;;;;;;4.60;2.47;;;21.30;89.80;;;;;;4829431;29;20049;-91
2022/09/04 10:12:41;;;;;;;5.32;2.90;;;21.30;89.50;;;;;;4817212;29;20128;-86
2022/09/04 10:15:53;;;;;;;3.90;2.47;;;21.20;88.30;;;;;;4843836;29;20572;-88
2022/09/04 10:18:36;;;;;;;3.25;2.28;;;21.00;88.70;;;;;;4814467;29;20064;-87
2022/09/04 10:21:28;;;;;;;5.30;2.50;;;21.10;88.80;;;;;;4833055;29;20101;-86
2022/09/04 10:24:05;;;;;;;5.35;2.58;;;21.10;89.00;;;;;;4821013;29;20055;-89
2022/09/04 10:26:48;;;;;;;3.50;2.40;;;21.10;88.50;;;;;;4840674;29;20054;-88
2022/09/04 10:29:25;;;;;;;;;;;21.10;88.80;;;;;;4838173;29;20061;-88
2022/09/04 10:32:22;;;;;;;3.28;2.28;;;21.00;88.40;;;;;;4841251;29;19970;-87
2022/09/04 10:35:08;;;;;;;3.17;2.42;;;21.00;89.20;;;;;;4837020;29;20057;-89
2022/09/04 10:38:05;;;;;;;3.70;2.38;;;21.10;88.20;;;;;;4829519;29;20077;-91
2022/09/04 10:41:26;;;;;;;3.80;2.65;;;21.10;88.30;;;;;;4829761;29;20187;-88
2022/09/04 10:44:14;;;;;;;4.10;2.97;;;21.10;88.50;;;;;;4824207;29;20049;-88
2022/09/04 10:46:55;;;;;;;4.32;2.75;;;21.10;89.50;;;;;;4842965;29;20061;-90
2022/09/04 10:49:47;;;;;;;6.57;2.80;;;21.20;90.20;;;;;;4845504;29;20110;-90
2022/09/04 10:52:20;;;;;;;;;;;21.10;90.20;;;;;;4828207;29;20046;-87
2022/09/04 10:54:53;;;;;;;5.13;2.72;;;21.00;90.10;;;;;;4842185;29;19982;-88
2022/09/04 10:57:39;;;;;;;;;;;21.00;90.20;;;;;;4828193;29;20046;-89
2022/09/04 11:00:12;;;;;;;3.85;2.35;;;21.00;89.20;;;;;;4818956;29;20019;-87
2022/09/04 11:03:12;;;;;;;3.63;2.28;;;20.90;89.20;;;;;;4834573;29;20126;-88
2022/09/04 11:06:09;;;;;;;4.55;3.13;;;20.90;90.70;;;;;;4850331;29;20137;-87
2022/09/04 11:08:57;;;;;;;4.00;3.00;;;20.80;90.20;;;;;;4842191;29;20780;-89
2022/09/04 11:11:51;;;;;;;3.30;2.30;;;20.80;90.20;;;;;;4840584;29;20053;-88
2022/09/04 11:14:37;;;;;;;2.65;1.95;;;20.70;90.60;;;;;;4823027;29;20054;-88
2022/09/04 11:17:16;;;;;;;5.07;2.60;;;20.70;90.40;;;;;;4853958;29;20049;-90
2022/09/04 11:20:18;;;;;;;5.28;2.67;;;20.70;90.20;;;;;;4838292;29;20138;-87
2022/09/04 11:22:58;;;;;;;4.15;2.78;;;20.60;90.30;;;;;;4826053;29;20136;-88
2022/09/04 11:25:54;;;;;;;4.32;2.40;;;20.60;90.40;;;;;;4841565;29;20045;-86
2022/09/04 11:29:05;;;;;;;4.47;3.03;;;20.50;91.90;;;;;;4828196;29;20057;-88
2022/09/04 11:31:58;;;;;;;4.80;3.25;;;20.40;94.10;;;;;;4813086;29;20065;-93
2022/09/04 11:35:05;;;;;;;5.45;3.50;;;20.20;95.90;;;;;;4798508;29;20052;-95
2022/09/04 11:37:55;;;;;;;7.70;3.50;;;20.00;99.30;;;;;;4844928;29;20096;-96
2022/09/04 11:40:48;;;;;;;6.57;3.90;;;19.90;99.90;;;;;;4824282;29;20121;-96
2022/09/04 11:43:45;;;;;;;8.35;4.72;;;19.70;99.90;;;;;;4823493;29;20046;-93
2022/09/04 11:46:37;;;;;;;8.77;5.40;;;19.50;99.90;;;;;;4840820;29;20495;-93
2022/09/04 11:49:21;;;;;;;8.30;4.70;;;19.40;99.90;;;;;;4836196;29;20136;-95
2022/09/04 11:51:52;;;;;;;6.93;4.50;;;19.30;99.90;;;;;;4822700;29;20109;-90
2022/09/04 11:54:57;;;;;;;6.43;4.10;;;19.30;99.90;;;;;;4822640;29;20057;-90
2022/09/04 11:58:06;;;;;;;6.28;4.50;;;19.30;99.90;;;;;;4823619;29;20048;-91
2022/09/04 12:01:15;;;;;;;6.68;4.45;;;19.40;99.90;;;;;;4826191;29;20059;-93
2022/09/04 12:03:56;;;;;;;6.47;4.80;;;19.50;99.90;;;;;;4781806;29;20141;-89
2022/09/04 12:06:35;;;;;;;8.35;5.22;;;19.70;99.90;;;;;;4773654;29;20600;-93
2022/09/04 12:09:39;;;;;;;8.02;5.13;;;19.70;99.90;;;;;;4771376;29;20141;-90
2022/09/04 12:12:23;;;;;;;8.07;5.20;;;19.70;99.90;;;;;;4776965;29;20437;-92
2022/09/04 12:14:56;;;;;;;7.70;5.10;;;19.60;99.90;;;;;;4787457;29;20150;-90
2022/09/04 12:17:59;;;;;;;8.00;5.57;;;19.80;99.90;;;;;;4792596;29;20082;-93
2022/09/04 12:20:32;;;;;;;7.57;5.10;;;20.00;99.90;;;;;;4773088;30;20142;-91
2022/09/04 12:23:19;;;;;;;7.28;5.05;;;20.00;99.90;;;;;;4807464;29;20063;-95
2022/09/04 12:26:22;;;;;;;8.65;5.07;;;20.20;99.90;;;;;;4777891;29;20074;-94
2022/09/04 12:29:22;;;;;;;8.63;5.38;;;20.40;99.90;;;;;;4774571;29;20051;-93
2022/09/04 12:32:26;;;;;;;6.20;4.60;;;20.50;99.90;;;;;;4776903;29;20054;-89
2022/09/04 12:35:18;;;;;;;7.18;4.25;;;20.50;99.90;;;;;;4815974;29;20149;-92
2022/09/04 12:38:04;;;;;;;8.80;4.03;;;20.40;99.90;;;;;;4820859;29;20084;-90
2022/09/04 12:40:33;;;;;;;9.27;4.57;;;20.40;99.90;;;;;;4825651;29;20068;-92
2022/09/04 12:43:19;;;;;;;5.78;3.70;;;20.40;99.90;;;;;;4831150;29;20057;-89
2022/09/04 12:46:25;;;;;;;5.28;3.92;;;20.40;99.90;;;;;;4842070;29;20418;-91
2022/09/04 12:49:16;;;;;;;9.25;4.97;;;20.50;99.90;;;;;;4776142;29;20142;-89
2022/09/04 12:52:07;;;;;;;5.70;3.75;;;20.50;99.90;;;;;;4829906;29;20416;-87
2022/09/04 12:54:40;;;;;;;5.72;3.55;;;20.50;99.90;;;;;;4829899;29;20054;-87
2022/09/04 12:57:45;;;;;;;7.50;4.00;;;20.50;99.90;;;;;;4842925;29;20050;-89
2022/09/04 13:00:18;;;;;;;6.03;2.90;;;20.60;99.90;;;;;;4845231;29;20513;-87
2022/09/04 13:02:51;;;;;;;6.75;3.17;;;20.60;99.90;;;;;;4830445;29;20464;-86
2022/09/04 13:05:40;;;;;;;7.05;3.28;;;20.60;99.90;;;;;;4830203;29;20140;-87
2022/09/04 13:08:45;;;;;;;6.65;3.60;;;20.60;99.90;;;;;;4821136;29;20507;-87
2022/09/04 13:11:32;;;;;;;5.63;3.17;;;20.70;99.00;;;;;;4825530;29;20045;-87
2022/09/04 13:14:14;;;;;;;5.38;2.97;;;20.70;99.90;;;;;;4824822;29;20069;-88
2022/09/04 13:16:47;;;;;;;4.13;3.17;;;20.80;99.40;;;;;;4827351;29;20049;-84
2022/09/04 13:19:58;;;;;;;3.80;3.13;;;20.80;97.30;;;;;;4833064;29;20069;-87
2022/09/04 13:22:57;;;;;;;3.53;2.88;;;20.80;99.40;;;;;;4833491;29;20659;-86
2022/09/04 13:25:41;;;;;;;4.53;3.22;;;21.00;99.10;;;;;;4804789;29;20518;-88
2022/09/04 13:28:34;;;;;;;7.28;3.50;;;21.20;96.80;;;;;;4824790;29;20046;-88
2022/09/04 13:31:25;;;;;;;4.22;2.72;;;21.20;96.20;;;;;;4841437;29;20488;-91
2022/09/04 13:34:17;;;;;;;4.10;3.10;;;21.20;96.60;;;;;;4843174;29;20054;-86
2022/09/04 13:36:53;;;;;;;4.90;2.90;;;21.10;94.90;;;;;;4825790;29;20049;-86
2022/09/04 13:39:34;;;;;;;5.15;2.67;;;21.00;96.00;;;;;;4833596;29;20053;-87
2022/09/04 13:42:30;;;;;;;4.25;2.83;;;20.90;95.60;;;;;;4830481;29;20088;-87
2022/09/04 13:45:04;;;;;;;4.38;2.80;;;20.90;96.50;;;;;;4804635;29;20056;-87
2022/09/04 13:47:53;;;;;;;4.38;3.00;;;20.90;96.50;;;;;;4844488;29;20046;-91
2022/09/04 13:50:26;;;;;;;3.88;3.17;;;21.00;95.60;;;;;;4818755;29;20145;-90
2022/09/04 13:53:15;;;;;;;2.95;2.38;;;21.20;93.70;;;;;;4827335;29;20060;-87
2022/09/04 13:55:58;;;;;;;3.13;2.15;;;21.40;93.00;;;;;;4838717;29;20081;-87
2022/09/04 13:58:32;;;;;;;3.78;2.75;;;21.60;91.80;;;;;;4845865;29;20052;-88
2022/09/04 14:01:05;;;;;;;4.72;2.83;;;21.60;91.50;;;;;;4829461;29;20049;-87
2022/09/04 14:03:52;;;;;;;4.25;2.60;;;21.70;91.70;;;;;;4825418;29;20054;-88
2022/09/04 14:06:23;;;;;;;6.57;2.75;;;21.60;91.50;;;;;;4837266;29;20060;-87
2022/09/04 14:08:54;;;;;;;4.38;2.90;;;21.60;91.70;;;;;;4832989;29;20144;-94
2022/09/04 14:11:49;;;;;;;2.53;2.13;;;21.70;91.30;;;;;;4833207;29;20089;-88
2022/09/04 14:14:37;;;;;;;3.50;2.67;;;21.80;90.10;;;;;;4845265;29;20141;-87
2022/09/04 14:17:06;;;;;;;2.33;2.13;;;21.80;91.20;;;;;;4829927;29;20054;-89
2022/09/04 14:19:36;;;;;;;3.28;2.42;;;21.80;90.90;;;;;;4831225;29;20050;-92
2022/09/04 14:22:25;;;;;;;3.97;2.58;;;21.70;90.90;;;;;;4844465;29;20065;-90
2022/09/04 14:25:27;;;;;;;4.28;2.05;;;21.70;91.00;;;;;;4844951;29;20050;-90
2022/09/04 14:28:10;;;;;;;3.05;2.00;;;21.60;89.70;;;;;;4834869;29;20136;-87
2022/09/04 14:30:44;;;;;;;2.42;1.95;;;21.60;87.90;;;;;;4840345;29;20077;-90
2022/09/04 14:33:26;;;;;;;2.72;2.10;;;21.50;88.60;;;;;;4841950;29;20061;-87
2022/09/04 14:36:11;;;;;;;2.28;1.80;;;21.60;86.80;;;;;;4824177;29;20141;-86
2022/09/04 14:38:58;;;;;;;3.83;2.58;;;21.50;85.60;;;;;;4834755;29;20713;-87
2022/09/04 14:41:44;;;;;;;4.45;2.20;;;21.60;85.20;;;;;;4827927;29;20049;-88
2022/09/04 14:44:43;;;;;;;3.33;2.47;;;21.50;87.80;;;;;;4841136;29;20049;-89
2022/09/04 14:47:35;;;;;;;3.70;2.35;;;21.70;86.40;;;;;;4841301;29;20041;-87
2022/09/04 14:50:06;;;;;;;;;;;21.80;86.70;;;;;;4850329;29;20517;-87
2022/09/04 14:52:46;;;;;;;3.13;2.30;;;22.00;86.00;;;;;;4827479;29;19928;-89
2022/09/04 14:55:25;;;;;;;4.07;2.58;;;22.10;86.30;;;;;;4840035;29;20057;-88
2022/09/04 14:58:18;;;;;;;3.03;2.20;;;22.20;86.90;;;;;;4826639;29;20042;-88
2022/09/04 15:01:07;;;;;;;3.22;2.17;;;22.20;85.10;;;;;;4826718;29;20054;-88
2022/09/04 15:04:07;;;;;;;2.58;1.98;;;22.20;87.20;;;;;;4843140;29;20056;-88
2022/09/04 15:06:48;;;;;;;3.00;2.08;;;22.10;87.00;;;;;;4837840;29;20060;-88
2022/09/04 15:09:43;;;;;;;3.88;2.47;;;22.10;86.70;;;;;;4832146;29;20041;-91
2022/09/04 15:12:25;;;;;;;3.00;1.80;;;22.10;84.30;;;;;;4820931;29;20057;-88
2022/09/04 15:15:34;;;;;;;3.33;2.13;;;22.00;85.30;;;;;;4804460;29;20054;-90
2022/09/04 15:18:16;;;;;;;4.60;2.33;;;21.90;85.10;;;;;;4816773;29;20049;-90
2022/09/04 15:20:58;;;;;;;3.47;1.83;;;21.90;85.50;;;;;;4833329;29;20057;-87
2022/09/04 15:23:33;;;;;;;4.82;2.03;;;21.90;87.00;;;;;;4833554;29;20148;-88
2022/09/04 15:26:06;;;;;;;2.40;2.15;;;21.90;87.70;;;;;;4818315;29;20072;-89
2022/09/04 15:28:40;;;;;;;2.78;2.03;;;21.80;88.20;;;;;;4814537;29;20476;-92
2022/09/04 15:31:14;;;;;;;3.92;2.08;;;21.80;87.80;;;;;;4820885;29;20072;-89
2022/09/04 15:33:45;;;;;;;3.05;1.65;;;21.70;89.50;;;;;;4821275;29;20140;-96
2022/09/04 15:36:23;;;;;;;2.67;2.03;;;21.80;86.10;;;;;;4820282;29;20065;-90
2022/09/04 15:38:56;;;;;;;2.45;1.90;;;21.80;85.80;;;;;;4835003;29;20053;-89
2022/09/04 15:41:43;;;;;;;3.20;1.90;;;21.80;86.90;;;;;;4812887;29;20069;-86
2022/09/04 15:44:33;;;;;;;2.88;2.22;;;21.70;88.20;;;;;;4837697;29;20060;-89
2022/09/04 15:47:12;;;;;;;2.97;2.20;;;21.60;88.40;;;;;;4822041;29;20046;-89
2022/09/04 15:49:40;;;;;;;3.90;2.83;;;21.60;87.80;;;;;;4822580;29;20055;-87
2022/09/04 15:52:28;;;;;;;5.25;2.40;;;21.60;88.30;;;;;;4824020;29;20073;-89
2022/09/04 15:55:03;;;;;;;4.60;2.33;;;21.60;89.60;;;;;;4838239;29;20091;-88
2022/09/04 15:57:42;;;;;;;2.78;1.90;;;21.60;88.70;;;;;;4818822;29;20046;-90
2022/09/04 16:00:19;;;;;;;3.72;2.25;;;21.60;86.70;;;;;;4836537;29;20719;-88
2022/09/04 16:02:59;;;;;;;4.32;2.22;;;21.60;87.40;;;;;;4819290;29;20052;-91
2022/09/04 16:05:40;;;;;;;4.03;2.60;;;21.50;86.80;;;;;;4819710;29;20957;-89
2022/09/04 16:08:35;;;;;;;4.40;2.45;;;21.50;86.90;;;;;;4834655;29;20045;-93